ESK weather

Eskişehir Air Base
Eskişehir Province, Turkey

Public forecast

Using degrees Celsius for public forecast. Weather courtesy of forecast.io.

Current aviation weather report (METAR) for Eskişehir Air Base

Retrieved 2020/08/08 22:50 UTC (1 hour ago):

LTBI 082250Z 26010KT 9999 SCT040 21/15 Q1006 NOSIG RMK RWY08 27011KT

Aviation forecast (TAF) for Eskişehir Air Base

Forecast is more than 12 hours old.

Retrieved 2012/05/11 09:09 UTC (8 years ago):

TAF LTBI 110740Z 1109/1121 VRB02KT 6000 -SHRA BKN030 BKN090 TEMPO 1112/1116 33015KT 4000 -TSRA FEW025CB BKN030